Time;durP1;ratioP1;P1;durP2;ratioP2;P2;SDS_P1;SDS_P2;PMS_P1;PMS_P2;Temp;Humidity;BMP_temperature;BMP_pressure;BME280_temperature;BME280_humidity;BME280_pressure;Samples;Min_cycle;Max_cycle;Signal;HPM_P1;HPM_P2
2022/09/10 00:01:34;;;;;;;;;;;;;;;16.77;100.00;98723.69;5072723;28;19928;-78
2022/09/10 00:04:02;;;;;;;;;;;;;;;16.95;100.00;98727.25;5074300;28;19924;-78
2022/09/10 00:06:31;;;;;;;;;;;;;;;16.77;100.00;98730.13;5094449;28;19924;-78
2022/09/10 00:08:59;;;;;;;;;;;;;;;16.85;100.00;98727.75;5078043;28;20359;-78
2022/09/10 00:11:30;;;;;;;;;;;;;;;16.82;100.00;98731.53;5095830;28;19932;-78
2022/09/10 00:13:58;;;;;;;;;;;;;;;17.02;100.00;98717.69;5095701;28;20024;-78
2022/09/10 00:16:26;;;;;;;;;;;;;;;16.94;100.00;98722.09;5095635;28;19973;-78
2022/09/10 00:18:53;;;;;;;;;;;;;;;16.68;100.00;98727.31;5095919;28;19924;-78
2022/09/10 00:21:20;;;;;;;;;;;;;;;16.84;100.00;98729.78;5095803;28;20030;-78
2022/09/10 00:23:48;;;;;;;;;;;;;;;16.82;100.00;98731.53;5095309;28;20294;-78
2022/09/10 00:26:20;;;;;;;;;;;;;;;16.98;100.00;98723.47;5095415;28;20062;-78
2022/09/10 00:28:48;;;;;;;;;;;;;;;16.78;100.00;98731.69;5077582;28;19924;-78
2022/09/10 00:31:16;;;;;;;;;;;;;;;16.59;100.00;98726.53;5077684;28;20463;-78
2022/09/10 00:33:43;;;;;;;;;;;;;;;16.55;100.00;98729.53;5077582;28;19924;-78
2022/09/10 00:36:14;;;;;;;;;;;;;;;16.76;100.00;98722.13;5095592;28;19959;-78
2022/09/10 00:38:42;;;;;;;;;;;;;;;16.44;100.00;98728.44;5076952;28;19924;-78
2022/09/10 00:41:09;;;;;;;;;;;;;;;16.59;100.00;98729.34;5060783;28;19924;-78
2022/09/10 00:43:45;;;;;;;;;;;;;;;16.22;100.00;98718.06;5095483;28;20094;-78
2022/09/10 00:46:14;;;;;;;;;;;;;;;16.05;100.00;98728.06;5077454;28;19924;-78
2022/09/10 00:48:41;;;;;;;;;;;;;;;16.35;100.00;98736.88;5076942;28;20379;-78
2022/09/10 00:51:08;;;;;;;;;;;;;;;16.27;100.00;98737.19;5077179;28;19935;-78
2022/09/10 00:53:35;;;;;;;;;;;;;;;16.36;100.00;98742.03;5076889;28;19971;-78
2022/09/10 00:56:03;;;;;;;;;;;;;;;16.47;100.00;98736.75;5095201;28;19924;-78
2022/09/10 00:58:30;;;;;;;;;;;;;;;16.61;100.00;98743.78;5060283;28;20357;-78
2022/09/10 01:01:00;;;;;;;;;;;;;;;16.65;100.00;98747.22;5076979;28;19925;-78
2022/09/10 01:03:31;;;;;;;;;;;;;;;16.68;100.00;98737.81;5094943;28;19975;-78
2022/09/10 01:05:59;;;;;;;;;;;;;;;16.20;100.00;98740.31;5077081;28;19924;-78
2022/09/10 01:08:26;;;;;;;;;;;;;;;16.44;100.00;98745.34;5060098;28;19953;-78
2022/09/10 01:11:00;;;;;;;;;;;;;;;16.46;100.00;98745.66;5076558;28;20015;-78
2022/09/10 01:13:39;;;;;;;;;;;;;;;16.56;100.00;98741.59;5060203;28;19928;-79
2022/09/10 01:16:10;;;;;;;;;;;;;;;16.68;100.00;98737.81;5076959;28;20294;-78
2022/09/10 01:18:56;;;;;;;;;;;;;;;16.73;100.00;98742.81;5075462;28;20444;-78
2022/09/10 01:21:27;;;;;;;;;;;;;;;16.84;100.00;98752.34;5076706;28;20184;-79
2022/09/10 01:24:15;;;;;;;;;;;;;;;16.84;100.00;98752.34;5076221;28;19973;-79
2022/09/10 01:26:53;;;;;;;;;;;;;;;16.99;100.00;98755.31;5076374;28;19924;-79
2022/09/10 01:29:26;;;;;;;;;;;;;;;16.84;100.00;98754.41;5076455;28;19924;-78
2022/09/10 01:31:58;;;;;;;;;;;;;;;16.92;100.00;98753.59;5076361;28;19924;-78
2022/09/10 01:34:33;;;;;;;;;;;;;;;16.59;100.00;98752.72;5059722;28;20068;-78
2022/09/10 01:37:07;;;;;;;;;;;;;;;16.79;100.00;98763.50;5075185;28;19924;-78
2022/09/10 01:39:36;;;;;;;;;;;;;;;16.75;100.00;98758.00;5075678;28;19931;-78
2022/09/10 01:42:04;;;;;;;;;;;;;;;16.65;100.00;98755.69;5093271;28;19970;-79
2022/09/10 01:44:39;;;;;;;;;;;;;;;16.63;100.00;98758.19;5075498;28;20299;-78
2022/09/10 01:47:26;;;;;;;;;;;;;;;16.61;100.00;98755.06;5059070;28;20357;-78
2022/09/10 01:49:56;;;;;;;;;;;;;;;16.88;100.00;98769.13;5058839;28;20148;-78
2022/09/10 01:52:36;;;;;;;;;;;;;;;16.87;100.00;98767.56;5075878;28;19928;-78
2022/09/10 01:55:20;;;;;;;;;;;;;;;16.77;100.00;98774.47;5075973;28;20019;-78
2022/09/10 01:57:51;;;;;;;;;;;;;;;17.00;100.00;98773.81;5075715;28;20011;-79
2022/09/10 02:00:20;;;;;;;;;;;;;;;16.80;100.00;98774.31;5075348;28;20015;-79
2022/09/10 02:02:56;;;;;;;;;;;;;;;17.03;100.00;98787.75;5075437;28;20323;-79
2022/09/10 02:05:28;;;;;;;;;;;;;;;17.14;100.00;98787.28;5059359;28;19931;-79
2022/09/10 02:07:58;;;;;;;;;;;;;;;17.28;100.00;98787.38;5042609;28;20392;-78
2022/09/10 02:10:25;;;;;;;;;;;;;;;17.05;100.00;98784.47;5059236;28;20405;-79
2022/09/10 02:12:53;;;;;;;;;;;;;;;16.48;100.00;98788.28;5058651;28;20024;-79
2022/09/10 02:15:48;;;;;;;;;;;;;;;16.43;100.00;98794.53;5077713;28;19924;-78
2022/09/10 02:18:21;;;;;;;;;;;;;;;16.89;100.00;98787.66;5059720;28;19924;-79
2022/09/10 02:20:50;;;;;;;;;;;;;;;16.95;100.00;98797.03;5075326;28;20011;-78
2022/09/10 02:23:21;;;;;;;;;;;;;;;17.14;100.00;98792.91;5075353;28;20015;-78
2022/09/10 02:25:50;;;;;;;;;;;;;;;17.17;100.00;98794.78;5075240;28;20030;-79
2022/09/10 02:28:19;;;;;;;;;;;;;;;17.31;100.00;98796.97;5075029;28;20295;-79
2022/09/10 02:30:47;;;;;;;;;;;;;;;17.33;100.00;98797.25;5075475;28;19951;-79
2022/09/10 02:33:15;;;;;;;;;;;;;;;17.37;100.00;98795.06;5075289;28;19931;-78
2022/09/10 02:35:42;;;;;;;;;;;;;;;17.38;100.00;98797.41;5093030;28;20405;-79
2022/09/10 02:38:09;;;;;;;;;;;;;;;17.39;100.00;98793.31;5075211;28;19924;-79
2022/09/10 02:40:38;;;;;;;;;;;;;;;17.41;100.00;98790.00;5075129;28;19954;-79
2022/09/10 02:43:06;;;;;;;;;;;;;;;17.22;100.00;98788.50;5075274;28;19971;-79
2022/09/10 02:45:34;;;;;;;;;;;;;;;17.19;100.00;98798.69;5074968;28;20497;-79
2022/09/10 02:48:03;;;;;;;;;;;;;;;17.11;100.00;98788.22;5075049;28;19923;-79
2022/09/10 02:50:31;;;;;;;;;;;;;;;17.07;100.00;98791.19;5074945;28;19927;-78
2022/09/10 02:52:59;;;;;;;;;;;;;;;17.02;100.00;98797.50;5058317;28;19946;-78
2022/09/10 02:55:27;;;;;;;;;;;;;;;17.05;100.00;98788.09;5075125;28;20026;-78
2022/09/10 02:57:55;;;;;;;;;;;;;;;17.13;100.00;98799.84;5058317;28;19930;-79
2022/09/10 03:00:22;;;;;;;;;;;;;;;17.06;100.00;98791.66;5092009;28;19931;-79
2022/09/10 03:02:49;;;;;;;;;;;;;;;17.14;100.00;98792.91;5074970;28;19928;-78
2022/09/10 03:05:16;;;;;;;;;;;;;;;17.20;100.00;98796.66;5074512;28;20433;-78
2022/09/10 03:07:43;;;;;;;;;;;;;;;17.18;100.00;98804.81;5075053;28;19924;-78
2022/09/10 03:10:10;;;;;;;;;;;;;;;17.29;100.00;98810.75;5074855;28;19972;-78
2022/09/10 03:12:38;;;;;;;;;;;;;;;17.38;100.00;98802.25;5074950;28;19963;-79
2022/09/10 03:15:05;;;;;;;;;;;;;;;17.54;100.00;98796.25;5074948;28;19977;-79
2022/09/10 03:17:32;;;;;;;;;;;;;;;17.65;100.00;98799.34;5074777;28;19924;-79
2022/09/10 03:19:59;;;;;;;;;;;;;;;17.64;100.00;98803.47;5074499;28;20384;-79
2022/09/10 03:22:27;;;;;;;;;;;;;;;17.66;100.00;98806.59;5058117;28;19924;-79
2022/09/10 03:24:54;;;;;;;;;;;;;;;17.74;100.00;98802.16;5074766;28;19924;-79
2022/09/10 03:27:22;;;;;;;;;;;;;;;17.60;100.00;98800.78;5074472;28;19924;-79
2022/09/10 03:29:49;;;;;;;;;;;;;;;17.44;100.00;98808.84;5041780;28;20276;-79
2022/09/10 03:32:17;;;;;;;;;;;;;;;17.40;100.00;98816.69;5074635;28;19928;-79
2022/09/10 03:34:44;;;;;;;;;;;;;;;17.51;100.00;98805.69;5058078;28;20402;-78
2022/09/10 03:37:12;;;;;;;;;;;;;;;17.54;100.00;98804.72;5092440;28;20379;-79
2022/09/10 03:39:41;;;;;;;;;;;;;;;17.33;100.00;98802.88;5057863;28;19928;-79
2022/09/10 03:42:08;;;;;;;;;;;;;;;17.48;100.00;98804.59;5061725;28;19924;-79
2022/09/10 03:44:35;;;;;;;;;;;;;;;17.65;100.00;98794.50;5078419;28;19924;-79
2022/09/10 03:47:02;;;;;;;;;;;;;;;17.61;100.00;98798.75;5077924;28;20335;-79
2022/09/10 03:49:29;;;;;;;;;;;;;;;17.56;100.00;98803.00;5078328;28;19928;-78
2022/09/10 03:51:57;;;;;;;;;;;;;;;17.52;100.00;98788.25;5061985;28;20006;-79
2022/09/10 03:54:24;;;;;;;;;;;;;;;17.52;100.00;98784.66;5078154;28;19924;-79
2022/09/10 03:56:52;;;;;;;;;;;;;;;17.50;100.00;98787.97;5078186;28;19924;-79
2022/09/10 03:59:19;;;;;;;;;;;;;;;17.56;100.00;98802.22;5096177;28;19947;-79
2022/09/10 04:01:46;;;;;;;;;;;;;;;17.55;100.00;98814.78;5060903;28;19997;-79
2022/09/10 04:04:13;;;;;;;;;;;;;;;17.16;100.00;98819.41;5096172;28;19975;-78
2022/09/10 04:06:41;;;;;;;;;;;;;;;17.30;100.00;98829.25;5061296;28;19924;-79
2022/09/10 04:09:09;;;;;;;;;;;;;;;16.65;100.00;98823.38;5077927;28;19924;-79
2022/09/10 04:11:36;;;;;;;;;;;;;;;16.98;100.00;98832.78;5077917;28;20039;-79
2022/09/10 04:14:03;;;;;;;;;;;;;;;17.20;100.00;98836.19;5078398;28;19924;-79
2022/09/10 04:16:34;;;;;;;;;;;;;;;16.87;100.00;98821.19;5077566;28;19955;-78
2022/09/10 04:19:02;;;;;;;;;;;;;;;16.84;100.00;98842.66;5077806;28;19953;-78
2022/09/10 04:21:30;;;;;;;;;;;;;;;16.84;100.00;98833.41;5086267;28;20371;-78
2022/09/10 04:23:59;;;;;;;;;;;;;;;16.95;100.00;98845.03;5041050;28;19924;-78
2022/09/10 04:26:26;;;;;;;;;;;;;;;17.27;100.00;98831.00;5057237;28;20403;-79
2022/09/10 04:28:54;;;;;;;;;;;;;;;17.22;100.00;98842.16;5057336;28;19925;-78
2022/09/10 04:31:21;;;;;;;;;;;;;;;17.34;100.00;98841.19;5040421;28;19978;-78
2022/09/10 04:33:51;;;;;;;;;;;;;;;17.36;100.00;98847.13;5057340;28;20395;-79
2022/09/10 04:36:22;;;;;;;;;;;;;;;17.43;100.00;98844.78;5057373;28;19932;-79
2022/09/10 04:38:49;;;;;;;;;;;;;;;17.53;100.00;98837.06;5057075;28;19971;-78
2022/09/10 04:41:18;;;;;;;;;;;;;;;17.56;100.00;98847.41;5057182;28;19972;-79
2022/09/10 04:43:46;;;;;;;;;;;;;;;17.66;100.00;98843.31;5075368;28;19932;-79
2022/09/10 04:46:14;;;;;;;;;;;;;;;17.52;100.00;98846.81;5041294;28;20334;-79
2022/09/10 04:48:42;;;;;;;;;;;;;;;17.57;100.00;98843.31;5025312;28;19932;-79
2022/09/10 04:51:12;;;;;;;;;;;;;;;17.47;100.00;98847.44;5058148;28;19952;-79
2022/09/10 04:53:45;;;;;;;;;;;;;;;17.43;100.00;98852.47;5057818;28;19951;-79
2022/09/10 04:56:12;;;;;;;;;;;;;;;17.49;100.00;98859.06;5057957;28;20453;-79
2022/09/10 04:58:39;;;;;;;;;;;;;;;17.53;100.00;98868.16;5057968;28;19931;-79
2022/09/10 05:01:06;;;;;;;;;;;;;;;17.42;100.00;98867.81;5057569;28;19932;-79
2022/09/10 05:03:34;;;;;;;;;;;;;;;17.68;100.00;98871.88;5057632;28;20005;-79
2022/09/10 05:06:02;;;;;;;;;;;;;;;17.69;100.00;98865.75;5057784;28;19924;-79
2022/09/10 05:08:29;;;;;;;;;;;;;;;17.51;100.00;98877.09;5056347;28;19931;-79
2022/09/10 05:11:01;;;;;;;;;;;;;;;17.51;100.00;98879.91;5057702;28;19928;-79
2022/09/10 05:13:32;;;;;;;;;;;;;;;17.71;100.00;98876.56;5057488;28;19924;-79
2022/09/10 05:16:00;;;;;;;;;;;;;;;17.68;100.00;98886.00;5057356;28;19982;-79
2022/09/10 05:18:29;;;;;;;;;;;;;;;17.61;100.00;98883.50;5073976;28;19924;-79
2022/09/10 05:20:56;;;;;;;;;;;;;;;17.55;100.00;98886.19;5075252;28;19928;-79
2022/09/10 05:23:24;;;;;;;;;;;;;;;17.72;100.00;98889.44;5040737;28;20372;-79
2022/09/10 05:25:53;;;;;;;;;;;;;;;17.66;100.00;98894.19;5057093;28;19932;-79
2022/09/10 05:28:20;;;;;;;;;;;;;;;17.71;100.00;98893.50;5040470;28;20348;-79
2022/09/10 05:30:47;;;;;;;;;;;;;;;17.55;100.00;98891.81;5057232;28;19972;-79
2022/09/10 05:33:20;;;;;;;;;;;;;;;17.54;100.00;98886.66;5057309;28;19931;-79
2022/09/10 05:35:50;;;;;;;;;;;;;;;17.72;100.00;98897.94;5057141;28;19924;-79
2022/09/10 05:38:18;;;;;;;;;;;;;;;17.76;100.00;98898.53;5038611;28;20022;-79
2022/09/10 05:40:45;;;;;;;;;;;;;;;17.50;100.00;98900.97;5055787;28;19924;-79
2022/09/10 05:43:12;;;;;;;;;;;;;;;17.62;100.00;98916.16;5073775;28;19924;-79
2022/09/10 05:45:40;;;;;;;;;;;;;;;17.77;100.00;98911.38;5056126;28;20330;-79
2022/09/10 05:48:07;;;;;;;;;;;;;;;17.71;100.00;98916.13;5056419;28;19931;-79
2022/09/10 05:50:34;;;;;;;;;;;;;;;17.83;100.00;98910.28;5056973;28;19979;-79
2022/09/10 05:53:03;;;;;;;;;;;;;;;17.84;100.00;98919.56;5056913;28;19924;-79
2022/09/10 05:55:31;;;;;;;;;;;;;;;17.88;100.00;98926.59;5024132;28;19931;-79
2022/09/10 05:57:59;;;;;;;;;;;;;;;17.55;100.00;98924.97;5056515;28;19932;-79
2022/09/10 06:00:26;;;;;;;;;;;;;;;17.45;100.00;98931.88;5040185;28;20357;-79
2022/09/10 06:03:03;;;;;;;;;;;;;;;17.30;100.00;98940.19;5039778;28;19924;-79
2022/09/10 06:05:39;;;;;;;;;;;;;;;17.21;100.00;98939.38;5056849;28;20370;-79
2022/09/10 06:08:07;;;;;;;;;;;;;;;17.27;100.00;98949.59;5056805;28;19924;-79
2022/09/10 06:10:38;;;;;;;;;;;;;;;17.33;100.00;98944.09;5056589;28;19924;-79
2022/09/10 06:13:05;;;;;;;;;;;;;;;17.42;100.00;98950.50;5056402;28;19925;-79
2022/09/10 06:15:34;;;;;;;;;;;;;;;17.56;100.00;98949.91;5056673;28;19963;-79
2022/09/10 06:18:01;;;;;;;;;;;;;;;17.35;100.00;98959.31;5056494;28;19978;-79
2022/09/10 06:20:28;;;;;;;;;;;;;;;17.46;100.00;98961.69;5056620;28;19924;-79
2022/09/10 06:22:55;;;;;;;;;;;;;;;17.44;100.00;98964.19;5056554;28;19925;-79
2022/09/10 06:25:23;;;;;;;;;;;;;;;17.43;100.00;98956.97;5056219;28;20013;-79
2022/09/10 06:27:50;;;;;;;;;;;;;;;17.59;100.00;98954.63;5055989;28;19981;-79
2022/09/10 06:30:19;;;;;;;;;;;;;;;17.62;100.00;98959.31;5039985;28;20404;-79
2022/09/10 06:32:48;;;;;;;;;;;;;;;17.69;100.00;98963.88;5056341;28;19924;-79
2022/09/10 06:35:15;;;;;;;;;;;;;;;17.75;100.00;98956.31;5039768;28;20016;-79
2022/09/10 06:37:42;;;;;;;;;;;;;;;17.76;100.00;98963.53;5039375;28;19971;-79
2022/09/10 06:40:11;;;;;;;;;;;;;;;17.65;100.00;98974.53;5056108;28;19925;-79
2022/09/10 06:42:40;;;;;;;;;;;;;;;17.61;100.00;98968.25;5055929;28;20275;-79
2022/09/10 06:45:13;;;;;;;;;;;;;;;17.64;100.00;98978.63;5073847;28;19986;-79
2022/09/10 06:48:20;;;;;;;;;;;;;;;17.58;100.00;98974.88;5015260;28;19980;-79
2022/09/10 06:51:08;;;;;;;;;;;;;;;17.62;100.00;98975.47;4998687;28;19936;-79
2022/09/10 06:53:40;;;;;;;;;;;;;;;17.60;100.00;98987.25;5015594;28;19932;-79
2022/09/10 06:56:10;;;;;;;;;;;;;;;17.48;100.00;98985.38;5014808;28;19931;-78
2022/09/10 06:58:38;;;;;;;;;;;;;;;17.52;100.00;98999.34;5015151;28;19925;-79
2022/09/10 07:01:07;;;;;;;;;;;;;;;17.74;100.00;98995.09;5015291;28;20292;-79
2022/09/10 07:03:44;;;;;;;;;;;;;;;17.71;100.00;99009.38;4998712;28;20361;-79
2022/09/10 07:06:14;;;;;;;;;;;;;;;17.72;100.00;99014.53;4998458;28;19967;-79
2022/09/10 07:08:43;;;;;;;;;;;;;;;17.67;100.00;99028.53;5014997;28;19960;-79
2022/09/10 07:11:12;;;;;;;;;;;;;;;17.61;100.00;99042.50;5014682;28;19932;-79
2022/09/10 07:13:40;;;;;;;;;;;;;;;17.50;100.00;99038.56;5031336;28;19925;-79
2022/09/10 07:16:08;;;;;;;;;;;;;;;17.56;100.00;99045.16;5032853;28;19929;-79
2022/09/10 07:18:35;;;;;;;;;;;;;;;17.62;100.00;99048.94;5030204;28;19924;-79
2022/09/10 07:21:10;;;;;;;;;;;;;;;17.71;100.00;99046.09;5059784;28;19925;-79
2022/09/10 07:23:42;;;;;;;;;;;;;;;17.67;100.00;99048.31;5077673;28;19925;-78
2022/09/10 07:26:12;;;;;;;;;;;;;;;17.75;100.00;99049.56;5058579;28;19924;-79
2022/09/10 07:28:48;;;;;;;;;;;;;;;17.94;100.00;99039.78;5059467;28;19931;-78
2022/09/10 07:31:18;;;;;;;;;;;;;;;18.10;100.00;99036.63;5059514;28;19931;-79
2022/09/10 07:33:47;;;;;;;;;;;;;;;18.04;100.00;99038.50;5059371;28;19925;-79
2022/09/10 07:36:15;;;;;;;;;;;;;;;18.12;100.00;99042.59;5026476;28;19924;-79
2022/09/10 07:38:45;;;;;;;;;;;;;;;18.22;100.00;99046.94;5059016;28;19925;-79
2022/09/10 07:41:14;;;;;;;;;;;;;;;18.51;100.00;99047.19;5042944;28;20356;-79
2022/09/10 07:43:42;;;;;;;;;;;;;;;18.41;100.00;99042.84;5059238;28;20379;-79
2022/09/10 07:46:12;;;;;;;;;;;;;;;18.45;100.00;99046.28;5047365;28;20018;-79
2022/09/10 07:48:40;;;;;;;;;;;;;;;18.31;100.00;99043.31;5042660;28;19928;-79
2022/09/10 07:51:10;;;;;;;;;;;;;;;18.61;100.00;99048.75;5058788;28;19974;-79
2022/09/10 07:53:38;;;;;;;;;;;;;;;18.40;100.00;99058.25;5042263;28;19932;-79
2022/09/10 07:56:10;;;;;;;;;;;;;;;18.42;100.00;99050.06;5059054;28;20348;-79
2022/09/10 07:58:38;;;;;;;;;;;;;;;18.59;100.00;99058.97;5058929;28;19932;-79
2022/09/10 08:01:10;;;;;;;;;;;;;;;18.67;100.00;99068.69;5042922;28;19925;-80
2022/09/10 08:03:39;;;;;;;;;;;;;;;18.62;100.00;99072.94;5042054;28;19932;-79
2022/09/10 08:06:08;;;;;;;;;;;;;;;18.55;100.00;99081.78;5058690;28;19925;-79
2022/09/10 08:08:38;;;;;;;;;;;;;;;18.31;100.00;99083.69;5058358;28;19978;-79
2022/09/10 08:11:10;;;;;;;;;;;;;;;18.42;100.00;99083.25;5058673;28;19956;-79
2022/09/10 08:13:40;;;;;;;;;;;;;;;18.58;100.00;99078.00;5058615;28;19931;-80
2022/09/10 08:16:09;;;;;;;;;;;;;;;18.48;100.00;99090.59;5058590;28;19925;-79
2022/09/10 08:18:38;;;;;;;;;;;;;;;18.49;100.00;99083.69;5058474;28;20031;-79
2022/09/10 08:21:09;;;;;;;;;;;;;;;18.36;100.00;99099.25;5058403;28;20040;-79
2022/09/10 08:23:40;;;;;;;;;;;;;;;18.20;100.00;99093.94;5058108;28;19934;-79
2022/09/10 08:26:07;;;;;;;;;;;;;;;18.20;100.00;99097.56;5057528;28;19939;-79
2022/09/10 08:28:36;;;;;;;;;;;;;;;18.32;100.00;99107.91;5040601;28;19924;-79
2022/09/10 08:31:07;;;;;;;;;;;;;;;18.41;100.00;99105.09;5057049;28;20029;-79
2022/09/10 08:33:45;;;;;;;;;;;;;;;18.44;100.00;99104.13;5041145;28;20016;-79
2022/09/10 08:36:15;;;;;;;;;;;;;;;18.29;100.00;99103.19;5039171;28;20381;-79
2022/09/10 08:38:43;;;;;;;;;;;;;;;18.43;100.00;99107.44;5056822;28;19925;-79
2022/09/10 08:41:22;;;;;;;;;;;;;;;18.62;100.00;99111.78;5056784;28;19924;-79
2022/09/10 08:43:55;;;;;;;;;;;;;;;18.39;100.00;99113.25;5056927;28;19982;-79
2022/09/10 08:46:26;;;;;;;;;;;;;;;18.39;100.00;99112.50;5056938;28;19932;-79
2022/09/10 08:49:10;;;;;;;;;;;;;;;18.41;100.00;99109.94;5056133;28;19930;-79
2022/09/10 08:51:43;;;;;;;;;;;;;;;18.36;100.00;99105.69;5056492;28;19932;-79
2022/09/10 08:54:23;;;;;;;;;;;;;;;18.28;100.00;99098.78;5056787;28;19932;-79
2022/09/10 08:56:53;;;;;;;;;;;;;;;18.61;100.00;99091.19;5056721;28;20363;-79
2022/09/10 08:59:27;;;;;;;;;;;;;;;18.76;100.00;99097.75;5040281;28;19924;-79
2022/09/10 09:02:08;;;;;;;;;;;;;;;18.41;100.00;99104.28;5056624;28;19967;-79
2022/09/10 09:04:42;;;;;;;;;;;;;;;18.68;100.00;99102.16;5056243;28;20018;-78
2022/09/10 09:07:15;;;;;;;;;;;;;;;18.58;100.00;99108.34;5056316;28;19924;-79
2022/09/10 09:09:51;;;;;;;;;;;;;;;18.65;100.00;99119.31;5056476;28;19990;-79
2022/09/10 09:12:37;;;;;;;;;;;;;;;18.55;100.00;99127.06;5056462;28;20359;-79
2022/09/10 09:15:12;;;;;;;;;;;;;;;18.71;100.00;99128.72;5056263;28;19924;-80
2022/09/10 09:17:46;;;;;;;;;;;;;;;18.57;100.00;99129.41;5056409;28;19924;-79
2022/09/10 09:20:18;;;;;;;;;;;;;;;18.52;100.00;99128.00;5056127;28;20441;-79
2022/09/10 09:23:00;;;;;;;;;;;;;;;18.53;100.00;99115.44;5056573;28;19936;-79
2022/09/10 09:25:36;;;;;;;;;;;;;;;18.71;100.00;99134.38;5056187;28;20356;-79
2022/09/10 09:28:31;;;;;;;;;;;;;;;18.83;100.00;99128.53;5131940;27;20293;-81
2022/09/10 09:31:03;;;;;;;;;;;;;;;18.60;100.00;99137.72;5113943;28;19928;-81
2022/09/10 09:33:33;;;;;;;;;;;;;;;18.77;100.00;99133.28;5130847;28;19924;-81
2022/09/10 09:36:01;;;;;;;;;;;;;;;19.02;100.00;99146.22;5130487;28;19967;-81
2022/09/10 09:38:40;;;;;;;;;;;;;;;19.15;100.00;99141.91;5118514;28;19924;-81
2022/09/10 09:41:23;;;;;;;;;;;;;;;18.86;100.00;99141.72;5124279;28;19931;-81
2022/09/10 09:44:13;;;;;;;;;;;;;;;19.22;100.00;99135.88;5130139;28;19931;-81
2022/09/10 09:46:41;;;;;;;;;;;;;;;18.56;100.00;99142.75;5130159;28;19950;-81
2022/09/10 09:49:14;;;;;;;;;;;;;;;18.91;100.00;99149.56;5096358;28;20439;-81
2022/09/10 09:51:47;;;;;;;;;;;;;;;18.46;100.00;99158.22;5129854;28;19980;-81
2022/09/10 09:54:25;;;;;;;;;;;;;;;19.18;100.00;99162.81;5079601;28;19930;-81
2022/09/10 09:57:18;;;;;;;;;;;;;;;18.98;100.00;99157.72;5130942;28;20390;-81
2022/09/10 09:59:46;;;;;;;;;;;;;;;19.44;100.00;99156.28;5129757;28;19930;-81
2022/09/10 10:02:18;;;;;;;;;;;;;;;19.95;100.00;99158.13;5131018;28;20240;-81
2022/09/10 10:04:53;;;;;;;;;;;;;;;20.19;100.00;99151.16;5129084;28;19924;-81
2022/09/10 10:07:24;;;;;;;;;;;;;;;20.60;100.00;99155.03;5130783;28;19923;-81
2022/09/10 10:09:52;;;;;;;;;;;;;;;20.60;100.00;99147.28;5129807;28;19931;-82
2022/09/10 10:12:19;;;;;;;;;;;;;;;21.01;100.00;99136.91;5131112;28;20018;-81
2022/09/10 10:14:48;;;;;;;;;;;;;;;20.64;100.00;99145.06;5131185;27;19924;-81
2022/09/10 10:17:21;;;;;;;;;;;;;;;20.86;100.00;99141.78;5130972;27;20686;-81
2022/09/10 10:19:57;;;;;;;;;;;;;;;20.74;100.00;99142.88;5131698;27;19924;-81
2022/09/10 10:22:26;;;;;;;;;;;;;;;20.87;100.00;99123.50;5131067;27;19969;-80
2022/09/10 10:24:53;;;;;;;;;;;;;;;20.72;100.00;99134.84;5130116;28;19924;-81
2022/09/10 10:27:29;;;;;;;;;;;;;;;20.59;100.00;99131.53;5129364;28;19928;-81
2022/09/10 10:29:58;;;;;;;;;;;;;;;21.09;100.00;99132.38;5129759;28;19924;-81
2022/09/10 10:32:31;;;;;;;;;;;;;;;20.97;100.00;99139.97;5130539;27;19930;-81
2022/09/10 10:35:10;;;;;;;;;;;;;;;20.94;100.00;99142.97;5130328;27;20022;-81
2022/09/10 10:37:56;;;;;;;;;;;;;;;20.71;100.00;99138.97;5128573;27;20412;-81
2022/09/10 10:40:25;;;;;;;;;;;;;;;20.74;100.00;99145.72;5116659;28;19969;-81
2022/09/10 10:43:01;;;;;;;;;;;;;;;21.01;100.00;99148.25;5115473;28;19930;-81
2022/09/10 10:45:39;;;;;;;;;;;;;;;21.15;100.00;99153.13;5116805;28;19924;-81
2022/09/10 10:48:11;;;;;;;;;;;;;;;21.17;100.00;99153.44;5116472;28;19927;-81
2022/09/10 10:50:56;;;;;;;;;;;;;;;21.61;100.00;99156.94;5116516;28;19951;-80
2022/09/10 10:53:34;;;;;;;;;;;;;;;21.70;100.00;99165.34;5114957;28;19969;-79
2022/09/10 10:56:11;;;;;;;;;;;;;;;21.70;100.00;99159.63;5116395;28;19923;-79
2022/09/10 10:58:40;;;;;;;;;;;;;;;21.14;100.00;99158.03;5115324;28;20344;-81
2022/09/10 11:01:19;;;;;;;;;;;;;;;20.85;100.00;99157.28;5115516;28;19924;-80
2022/09/10 11:04:10;;;;;;;;;;;;;;;20.91;100.00;99149.63;5114978;28;19923;-79
2022/09/10 11:06:40;;;;;;;;;;;;;;;20.67;100.00;99151.78;5105891;28;20355;-80
2022/09/10 11:09:12;;;;;;;;;;;;;;;20.33;100.00;99156.06;5116288;28;20302;-80
2022/09/10 11:11:49;;;;;;;;;;;;;;;21.00;100.00;99169.44;5115369;28;19930;-81
2022/09/10 11:14:16;;;;;;;;;;;;;;;21.27;100.00;99171.91;5115458;28;20298;-81
2022/09/10 11:16:45;;;;;;;;;;;;;;;21.38;100.00;99161.53;5116082;28;19924;-80
2022/09/10 11:19:37;;;;;;;;;;;;;;;21.06;100.00;99161.78;5114931;28;19923;-81
2022/09/10 11:22:12;;;;;;;;;;;;;;;20.93;100.00;99173.41;5102253;28;19924;-81
2022/09/10 11:24:56;;;;;;;;;;;;;;;21.01;100.00;99166.09;5098344;28;20327;-81
2022/09/10 11:27:28;;;;;;;;;;;;;;;21.31;100.00;99161.16;5115934;28;19924;-81
2022/09/10 11:30:04;;;;;;;;;;;;;;;21.42;100.00;99156.41;5116217;28;20371;-81
2022/09/10 11:32:41;;;;;;;;;;;;;;;21.71;100.00;99151.88;5115986;28;19973;-80
2022/09/10 11:35:17;;;;;;;;;;;;;;;21.89;100.00;99160.16;5116339;28;19924;-80
2022/09/10 11:37:59;;;;;;;;;;;;;;;21.64;100.00;99152.31;5114845;28;19928;-80
2022/09/10 11:40:29;;;;;;;;;;;;;;;21.45;100.00;99157.47;5114746;28;20527;-80
2022/09/10 11:43:11;;;;;;;;;;;;;;;21.42;100.00;99155.59;5115601;28;19924;-81
2022/09/10 11:45:44;;;;;;;;;;;;;;;21.58;100.00;99162.81;5115508;28;19931;-81
2022/09/10 11:48:31;;;;;;;;;;;;;;;21.74;100.00;99167.94;5115479;28;19932;-81
2022/09/10 11:51:05;;;;;;;;;;;;;;;21.52;100.00;99165.59;5113403;28;19993;-81
2022/09/10 11:53:33;;;;;;;;;;;;;;;21.52;100.00;99165.59;5115510;28;19928;-81
2022/09/10 11:56:12;;;;;;;;;;;;;;;21.52;100.00;99168.44;5114372;28;19924;-80
2022/09/10 11:58:48;;;;;;;;;;;;;;;21.69;100.00;99171.50;5097761;28;19932;-81
2022/09/10 12:01:35;;;;;;;;;;;;;;;21.63;100.00;99176.34;5115270;28;20259;-81
2022/09/10 12:04:05;;;;;;;;;;;;;;;21.34;100.00;99177.22;5114411;28;20354;-80
2022/09/10 12:06:42;;;;;;;;;;;;;;;21.47;100.00;99169.13;5114104;28;19924;-80
2022/09/10 12:09:19;;;;;;;;;;;;;;;21.83;100.00;99174.31;5115459;28;20516;-81
2022/09/10 12:11:55;;;;;;;;;;;;;;;22.00;100.00;99183.06;5115410;28;19930;-81
2022/09/10 12:14:22;;;;;;;;;;;;;;;;;;5113975;28;20027;-81
2022/09/10 12:16:51;;;;;;;;;;;;;;;22.01;100.00;99171.19;5115157;28;20002;-81
2022/09/10 12:19:25;;;;;;;;;;;;;;;22.20;100.00;99174.53;5114080;28;20278;-81
2022/09/10 12:22:00;;;;;;;;;;;;;;;22.16;100.00;99180.41;5114013;28;19924;-81
2022/09/10 12:24:32;;;;;;;;;;;;;;;22.23;100.00;99190.59;5113951;28;19959;-81
2022/09/10 12:26:59;;;;;;;;;;;;;;;22.05;100.00;99191.69;5113799;28;19924;-81
2022/09/10 12:29:28;;;;;;;;;;;;;;;21.99;100.00;99190.81;5114764;28;19977;-81
2022/09/10 12:32:08;;;;;;;;;;;;;;;22.00;100.00;99188.75;5115128;28;20316;-81
2022/09/10 12:34:35;;;;;;;;;;;;;;;21.92;100.00;99191.25;5096839;28;19928;-81
2022/09/10 12:37:02;;;;;;;;;;;;;;;21.93;100.00;99189.94;5114816;28;19923;-81
2022/09/10 12:39:30;;;;;;;;;;;;;;;21.73;100.00;99189.94;5114915;28;19923;-81
2022/09/10 12:41:58;;;;;;;;;;;;;;;21.89;100.00;99195.06;5114757;28;19924;-81
2022/09/10 12:44:44;;;;;;;;;;;;;;;22.04;100.00;99198.63;5113286;28;19923;-81
2022/09/10 12:47:17;;;;;;;;;;;;;;;21.91;100.00;99197.44;5114821;28;19980;-81
2022/09/10 12:49:53;;;;;;;;;;;;;;;21.57;100.00;99201.06;5114475;28;19931;-81
2022/09/10 12:52:23;;;;;;;;;;;;;;;21.65;100.00;99197.31;5114376;28;19949;-81
2022/09/10 12:54:54;;;;;;;;;;;;;;;21.82;100.00;99192.66;5114609;28;19924;-81
2022/09/10 12:57:26;;;;;;;;;;;;;;;21.70;100.00;99179.53;5114490;28;19928;-81
2022/09/10 13:00:12;;;;;;;;;;;;;;;21.84;100.00;99183.63;5114375;28;19943;-81